Nearby METAR Reports

 

KAEG - Double Eagle Ii, New Mexico, USA
Distance from station: WNW 2mi, 15km
Updated: 11/14/2018 5:50am
Clear
Clear
 Wind from WNW
Wind: WNW 6 mph , 9 km/h
Temperature: 19°F , -7°C
Wind Chill: 11°F , -12°C
Dew Point: 10°F , -12°C
Humidity: 68%
Barometer: 30.50 inHg , 1032.8 hPa
Clouds: Clear
Visibility: 10 miles , 16 km
2018/11/14 12:50 KAEG 141250Z 29005KT 10SM CLR M07/M12 A3050
KABQ - Albuquerque, New Mexico, USA
Distance from station: SE 4mi, 5km
Updated: 11/14/2018 5:52am
Clear
Clear
 Wind from N
Wind: N 8 mph , 13 km/h
Temperature: 27°F , -3°C
Wind Chill: 19°F , -7°C
Dew Point: 18°F , -8°C
Humidity: 69%
Barometer: 30.49 inHg , 1032.5 hPa
Clouds: Clear
Visibility: 10 miles , 16 km
2018/11/14 12:52 KABQ 141252Z 36007KT 10SM CLR M03/M08 A3049 RMK AO2 SLP338 T10281078
 
KE80 - Belen, New Mexico, USA
Distance from station: SSW 32mi, 51km
Updated: 11/07/2018 9:55am
NOT Current
Clear
Clear
 Wind from NNE
Wind: NNE 6 mph , 9 km/h
Temperature: 54°F , 12°C
Dew Point: 27°F , -3°C
Humidity: 35%
Barometer: 30.15 inHg , 1021 hPa
Clouds: Clear
Visibility: 10 miles , 16 km
2018/11/07 16:55 KE80 071655Z AUTO 03005KT 10SM CLR 12/M03 A3015 RMK AO2 T01211035
K0E0 - Moriarty, New Mexico, USA
Distance from station: E 37mi, 60km
Updated: 11/14/2018 5:55am
Clear
Clear
 Wind from calm
Wind: Calm
Temperature: 18°F , -8°C
Dew Point: 14°F , -10°C
Humidity: 86%
Barometer: 30.48 inHg , 1032.2 hPa
Clouds: Clear
Visibility: 10 miles , 16 km
2018/11/14 12:55 K0E0 141255Z AUTO 00000KT 10SM CLR M08/M10 A3048 RMK AO2 T10821096
 
KSAF - Santa Fe, New Mexico, USA
Distance from station: NE 48mi, 77km
Updated: 11/14/2018 5:53am
Clear
Clear
 Wind from N
Wind: N 17 mph , 28 km/h
Temperature: 21°F , -6°C
Wind Chill: 7°F , -14°C
Dew Point: 16°F , -9°C
Humidity: 80%
Barometer: 30.45 inHg , 1031.2 hPa
Clouds: Clear
Visibility: 10 miles , 16 km
2018/11/14 12:53 KSAF 141253Z AUTO 36015KT 10SM CLR M06/M09 A3045 RMK AO2 SLP333 T10611094